sensor_id;sensor_type;location;lat;lon;timestamp;P1;durP1;ratioP1;P2;durP2;ratioP2
20621;SDS011;10470;42.670;23.354;2022-11-20T00:00:49;5.37;;;4.50;;
20621;SDS011;10470;42.670;23.354;2022-11-20T00:03:15;6.20;;;4.87;;
20621;SDS011;10470;42.670;23.354;2022-11-20T00:05:41;6.37;;;4.73;;
20621;SDS011;10470;42.670;23.354;2022-11-20T00:08:06;7.73;;;5.53;;
20621;SDS011;10470;42.670;23.354;2022-11-20T00:10:32;7.83;;;5.30;;
20621;SDS011;10470;42.670;23.354;2022-11-20T00:13:00;11.13;;;6.97;;
20621;SDS011;10470;42.670;23.354;2022-11-20T00:15:26;10.07;;;7.20;;
20621;SDS011;10470;42.670;23.354;2022-11-20T00:17:51;10.27;;;7.23;;
20621;SDS011;10470;42.670;23.354;2022-11-20T00:20:17;11.03;;;7.63;;
20621;SDS011;10470;42.670;23.354;2022-11-20T00:22:43;9.77;;;6.47;;
20621;SDS011;10470;42.670;23.354;2022-11-20T00:25:08;9.00;;;5.17;;
20621;SDS011;10470;42.670;23.354;2022-11-20T00:27:34;8.73;;;6.37;;
20621;SDS011;10470;42.670;23.354;2022-11-20T00:30:00;8.67;;;6.87;;
20621;SDS011;10470;42.670;23.354;2022-11-20T00:32:25;8.33;;;6.67;;
20621;SDS011;10470;42.670;23.354;2022-11-20T00:34:51;13.67;;;7.43;;
20621;SDS011;10470;42.670;23.354;2022-11-20T00:37:16;7.23;;;6.07;;
20621;SDS011;10470;42.670;23.354;2022-11-20T00:39:42;10.07;;;6.17;;
20621;SDS011;10470;42.670;23.354;2022-11-20T00:42:08;9.77;;;6.43;;
20621;SDS011;10470;42.670;23.354;2022-11-20T00:44:34;7.77;;;5.80;;
20621;SDS011;10470;42.670;23.354;2022-11-20T00:46:59;8.17;;;5.60;;
20621;SDS011;10470;42.670;23.354;2022-11-20T00:49:25;7.17;;;4.60;;
20621;SDS011;10470;42.670;23.354;2022-11-20T00:51:51;8.57;;;4.97;;
20621;SDS011;10470;42.670;23.354;2022-11-20T00:54:16;7.17;;;3.73;;
20621;SDS011;10470;42.670;23.354;2022-11-20T00:56:42;9.00;;;4.03;;
20621;SDS011;10470;42.670;23.354;2022-11-20T00:59:08;3.80;;;2.60;;
20621;SDS011;10470;42.670;23.354;2022-11-20T01:01:35;4.27;;;2.23;;
20621;SDS011;10470;42.670;23.354;2022-11-20T01:04:01;5.27;;;2.10;;
20621;SDS011;10470;42.670;23.354;2022-11-20T01:06:28;5.83;;;2.20;;
20621;SDS011;10470;42.670;23.354;2022-11-20T01:08:59;2.57;;;1.27;;
20621;SDS011;10470;42.670;23.354;2022-11-20T01:11:27;2.90;;;2.20;;
20621;SDS011;10470;42.670;23.354;2022-11-20T01:13:55;5.00;;;1.83;;
20621;SDS011;10470;42.670;23.354;2022-11-20T01:16:23;3.67;;;1.60;;
20621;SDS011;10470;42.670;23.354;2022-11-20T01:18:52;2.37;;;1.30;;
20621;SDS011;10470;42.670;23.354;2022-11-20T01:21:21;3.87;;;1.27;;
20621;SDS011;10470;42.670;23.354;2022-11-20T01:23:49;3.10;;;1.53;;
20621;SDS011;10470;42.670;23.354;2022-11-20T01:26:16;3.10;;;1.40;;
20621;SDS011;10470;42.670;23.354;2022-11-20T01:28:47;2.97;;;1.10;;
20621;SDS011;10470;42.670;23.354;2022-11-20T01:31:23;2.07;;;1.40;;
20621;SDS011;10470;42.670;23.354;2022-11-20T01:33:51;4.97;;;1.40;;
20621;SDS011;10470;42.670;23.354;2022-11-20T01:36:19;2.77;;;1.67;;
20621;SDS011;10470;42.670;23.354;2022-11-20T01:38:46;2.97;;;1.67;;
20621;SDS011;10470;42.670;23.354;2022-11-20T01:41:12;3.60;;;1.93;;
20621;SDS011;10470;42.670;23.354;2022-11-20T01:43:59;2.57;;;1.90;;
20621;SDS011;10470;42.670;23.354;2022-11-20T01:46:25;3.50;;;1.70;;
20621;SDS011;10470;42.670;23.354;2022-11-20T01:48:54;2.50;;;2.10;;
20621;SDS011;10470;42.670;23.354;2022-11-20T01:51:28;5.00;;;1.90;;
20621;SDS011;10470;42.670;23.354;2022-11-20T01:54:00;1.80;;;1.57;;
20621;SDS011;10470;42.670;23.354;2022-11-20T01:56:29;4.30;;;2.30;;
20621;SDS011;10470;42.670;23.354;2022-11-20T01:58:59;3.87;;;1.97;;
20621;SDS011;10470;42.670;23.354;2022-11-20T02:01:30;2.47;;;1.80;;
20621;SDS011;10470;42.670;23.354;2022-11-20T02:03:56;1.63;;;1.50;;
20621;SDS011;10470;42.670;23.354;2022-11-20T02:06:24;2.63;;;1.90;;
20621;SDS011;10470;42.670;23.354;2022-11-20T02:08:53;4.03;;;1.30;;
20621;SDS011;10470;42.670;23.354;2022-11-20T02:11:20;2.87;;;1.77;;
20621;SDS011;10470;42.670;23.354;2022-11-20T02:13:45;2.87;;;1.90;;
20621;SDS011;10470;42.670;23.354;2022-11-20T02:18:53;3.77;;;2.17;;
20621;SDS011;10470;42.670;23.354;2022-11-20T02:24:05;2.53;;;2.00;;
20621;SDS011;10470;42.670;23.354;2022-11-20T02:26:53;3.70;;;2.30;;
20621;SDS011;10470;42.670;23.354;2022-11-20T02:29:31;3.67;;;2.40;;
20621;SDS011;10470;42.670;23.354;2022-11-20T02:32:00;2.57;;;1.43;;
20621;SDS011;10470;42.670;23.354;2022-11-20T02:34:27;3.10;;;2.20;;
20621;SDS011;10470;42.670;23.354;2022-11-20T02:36:54;3.53;;;1.70;;
20621;SDS011;10470;42.670;23.354;2022-11-20T02:39:21;1.43;;;0.90;;
20621;SDS011;10470;42.670;23.354;2022-11-20T02:41:51;2.30;;;0.70;;
20621;SDS011;10470;42.670;23.354;2022-11-20T02:44:18;3.00;;;1.13;;
20621;SDS011;10470;42.670;23.354;2022-11-20T02:46:44;0.60;;;0.50;;
20621;SDS011;10470;42.670;23.354;2022-11-20T02:49:09;5.10;;;0.73;;
20621;SDS011;10470;42.670;23.354;2022-11-20T02:51:35;2.80;;;0.73;;
20621;SDS011;10470;42.670;23.354;2022-11-20T02:54:00;2.50;;;0.87;;
20621;SDS011;10470;42.670;23.354;2022-11-20T02:56:26;0.80;;;0.80;;
20621;SDS011;10470;42.670;23.354;2022-11-20T02:58:52;2.20;;;0.73;;
20621;SDS011;10470;42.670;23.354;2022-11-20T03:01:18;2.77;;;0.73;;
20621;SDS011;10470;42.670;23.354;2022-11-20T03:03:43;2.63;;;0.93;;
20621;SDS011;10470;42.670;23.354;2022-11-20T03:06:09;10.23;;;1.20;;
20621;SDS011;10470;42.670;23.354;2022-11-20T03:08:34;2.33;;;0.80;;
20621;SDS011;10470;42.670;23.354;2022-11-20T03:11:04;2.50;;;0.90;;
20621;SDS011;10470;42.670;23.354;2022-11-20T03:13:31;2.07;;;0.90;;
20621;SDS011;10470;42.670;23.354;2022-11-20T03:15:57;3.07;;;0.90;;
20621;SDS011;10470;42.670;23.354;2022-11-20T03:18:23;3.40;;;1.07;;
20621;SDS011;10470;42.670;23.354;2022-11-20T03:20:48;2.80;;;1.00;;
20621;SDS011;10470;42.670;23.354;2022-11-20T03:23:14;3.63;;;0.73;;
20621;SDS011;10470;42.670;23.354;2022-11-20T03:25:39;3.27;;;0.93;;
20621;SDS011;10470;42.670;23.354;2022-11-20T03:28:05;3.43;;;0.90;;
20621;SDS011;10470;42.670;23.354;2022-11-20T03:30:30;4.77;;;1.00;;
20621;SDS011;10470;42.670;23.354;2022-11-20T03:32:56;4.30;;;1.00;;
20621;SDS011;10470;42.670;23.354;2022-11-20T03:35:22;1.17;;;0.80;;
20621;SDS011;10470;42.670;23.354;2022-11-20T03:37:47;2.80;;;0.90;;
20621;SDS011;10470;42.670;23.354;2022-11-20T03:40:13;1.63;;;0.80;;
20621;SDS011;10470;42.670;23.354;2022-11-20T03:42:39;1.07;;;0.70;;
20621;SDS011;10470;42.670;23.354;2022-11-20T03:45:11;2.00;;;0.90;;
20621;SDS011;10470;42.670;23.354;2022-11-20T03:47:38;1.77;;;0.70;;
20621;SDS011;10470;42.670;23.354;2022-11-20T03:50:03;2.37;;;0.80;;
20621;SDS011;10470;42.670;23.354;2022-11-20T03:52:30;0.80;;;0.70;;
20621;SDS011;10470;42.670;23.354;2022-11-20T03:54:55;3.40;;;0.80;;
20621;SDS011;10470;42.670;23.354;2022-11-20T03:57:21;1.97;;;0.90;;
20621;SDS011;10470;42.670;23.354;2022-11-20T03:59:47;0.97;;;0.70;;
20621;SDS011;10470;42.670;23.354;2022-11-20T04:02:13;1.27;;;0.83;;
20621;SDS011;10470;42.670;23.354;2022-11-20T04:04:38;2.10;;;0.77;;
20621;SDS011;10470;42.670;23.354;2022-11-20T04:07:04;1.40;;;0.83;;
20621;SDS011;10470;42.670;23.354;2022-11-20T04:09:30;1.57;;;0.70;;
20621;SDS011;10470;42.670;23.354;2022-11-20T04:11:55;2.00;;;0.80;;
20621;SDS011;10470;42.670;23.354;2022-11-20T04:14:21;1.53;;;0.80;;
20621;SDS011;10470;42.670;23.354;2022-11-20T04:16:47;4.47;;;0.93;;
20621;SDS011;10470;42.670;23.354;2022-11-20T04:19:14;1.53;;;0.90;;
20621;SDS011;10470;42.670;23.354;2022-11-20T04:21:40;1.23;;;0.80;;
20621;SDS011;10470;42.670;23.354;2022-11-20T04:24:07;2.37;;;0.60;;
20621;SDS011;10470;42.670;23.354;2022-11-20T04:26:33;1.77;;;0.70;;
20621;SDS011;10470;42.670;23.354;2022-11-20T04:28:59;2.40;;;0.70;;
20621;SDS011;10470;42.670;23.354;2022-11-20T04:31:27;1.90;;;0.70;;
20621;SDS011;10470;42.670;23.354;2022-11-20T04:33:54;1.47;;;0.70;;
20621;SDS011;10470;42.670;23.354;2022-11-20T04:36:21;1.77;;;0.73;;
20621;SDS011;10470;42.670;23.354;2022-11-20T04:38:56;1.77;;;0.73;;
20621;SDS011;10470;42.670;23.354;2022-11-20T04:41:28;0.90;;;0.60;;
20621;SDS011;10470;42.670;23.354;2022-11-20T04:43:56;1.87;;;0.87;;
20621;SDS011;10470;42.670;23.354;2022-11-20T04:46:28;1.60;;;0.77;;
20621;SDS011;10470;42.670;23.354;2022-11-20T04:49:05;1.60;;;0.70;;
20621;SDS011;10470;42.670;23.354;2022-11-20T04:51:31;1.83;;;0.90;;
20621;SDS011;10470;42.670;23.354;2022-11-20T04:53:57;1.07;;;0.80;;
20621;SDS011;10470;42.670;23.354;2022-11-20T04:56:23;1.27;;;0.90;;
20621;SDS011;10470;42.670;23.354;2022-11-20T04:58:49;0.90;;;0.70;;
20621;SDS011;10470;42.670;23.354;2022-11-20T05:01:15;1.60;;;0.87;;
20621;SDS011;10470;42.670;23.354;2022-11-20T05:03:42;1.13;;;0.70;;
20621;SDS011;10470;42.670;23.354;2022-11-20T05:06:09;2.03;;;0.70;;
20621;SDS011;10470;42.670;23.354;2022-11-20T05:08:40;1.13;;;0.60;;
20621;SDS011;10470;42.670;23.354;2022-11-20T05:11:09;3.27;;;0.80;;
20621;SDS011;10470;42.670;23.354;2022-11-20T05:13:38;2.83;;;1.27;;
20621;SDS011;10470;42.670;23.354;2022-11-20T05:16:06;0.70;;;0.70;;
20621;SDS011;10470;42.670;23.354;2022-11-20T05:18:36;4.33;;;1.10;;
20621;SDS011;10470;42.670;23.354;2022-11-20T05:21:02;2.10;;;0.80;;
20621;SDS011;10470;42.670;23.354;2022-11-20T05:23:29;1.30;;;0.70;;
20621;SDS011;10470;42.670;23.354;2022-11-20T05:25:56;1.70;;;0.80;;
20621;SDS011;10470;42.670;23.354;2022-11-20T05:28:22;2.17;;;0.70;;
20621;SDS011;10470;42.670;23.354;2022-11-20T05:30:49;4.57;;;0.90;;
20621;SDS011;10470;42.670;23.354;2022-11-20T05:33:15;1.43;;;1.00;;
20621;SDS011;10470;42.670;23.354;2022-11-20T05:35:40;2.53;;;0.90;;
20621;SDS011;10470;42.670;23.354;2022-11-20T05:38:06;2.83;;;1.03;;
20621;SDS011;10470;42.670;23.354;2022-11-20T05:40:32;2.37;;;0.93;;
20621;SDS011;10470;42.670;23.354;2022-11-20T05:42:58;2.03;;;1.00;;
20621;SDS011;10470;42.670;23.354;2022-11-20T05:45:24;3.90;;;1.30;;
20621;SDS011;10470;42.670;23.354;2022-11-20T05:47:49;1.53;;;0.90;;
20621;SDS011;10470;42.670;23.354;2022-11-20T05:50:15;3.43;;;1.20;;
20621;SDS011;10470;42.670;23.354;2022-11-20T05:52:40;2.70;;;1.40;;
20621;SDS011;10470;42.670;23.354;2022-11-20T05:55:06;4.70;;;1.90;;
20621;SDS011;10470;42.670;23.354;2022-11-20T05:57:32;3.97;;;2.67;;
20621;SDS011;10470;42.670;23.354;2022-11-20T05:59:58;4.07;;;2.23;;
20621;SDS011;10470;42.670;23.354;2022-11-20T06:02:23;2.57;;;1.20;;
20621;SDS011;10470;42.670;23.354;2022-11-20T06:04:49;3.70;;;1.20;;
20621;SDS011;10470;42.670;23.354;2022-11-20T06:07:14;3.03;;;1.00;;
20621;SDS011;10470;42.670;23.354;2022-11-20T06:09:40;3.87;;;1.93;;
20621;SDS011;10470;42.670;23.354;2022-11-20T06:12:05;3.47;;;1.20;;
20621;SDS011;10470;42.670;23.354;2022-11-20T06:14:31;3.97;;;1.23;;
20621;SDS011;10470;42.670;23.354;2022-11-20T06:16:57;3.53;;;1.37;;
20621;SDS011;10470;42.670;23.354;2022-11-20T06:19:23;5.37;;;1.67;;
20621;SDS011;10470;42.670;23.354;2022-11-20T06:21:48;2.13;;;1.30;;
20621;SDS011;10470;42.670;23.354;2022-11-20T06:24:17;3.23;;;1.33;;
20621;SDS011;10470;42.670;23.354;2022-11-20T06:26:43;5.37;;;2.20;;
20621;SDS011;10470;42.670;23.354;2022-11-20T06:29:09;3.63;;;1.10;;
20621;SDS011;10470;42.670;23.354;2022-11-20T06:31:34;1.67;;;1.00;;
20621;SDS011;10470;42.670;23.354;2022-11-20T06:34:02;3.93;;;1.20;;
20621;SDS011;10470;42.670;23.354;2022-11-20T06:36:29;3.97;;;1.27;;
20621;SDS011;10470;42.670;23.354;2022-11-20T06:38:54;4.00;;;1.30;;
20621;SDS011;10470;42.670;23.354;2022-11-20T06:41:20;2.17;;;1.07;;
20621;SDS011;10470;42.670;23.354;2022-11-20T06:43:47;2.57;;;1.40;;
20621;SDS011;10470;42.670;23.354;2022-11-20T06:46:13;5.03;;;2.10;;
20621;SDS011;10470;42.670;23.354;2022-11-20T06:48:42;4.63;;;1.10;;
20621;SDS011;10470;42.670;23.354;2022-11-20T06:51:08;4.17;;;1.33;;
20621;SDS011;10470;42.670;23.354;2022-11-20T06:53:34;4.23;;;1.20;;
20621;SDS011;10470;42.670;23.354;2022-11-20T06:56:00;5.10;;;1.13;;
20621;SDS011;10470;42.670;23.354;2022-11-20T06:58:29;4.40;;;1.50;;
20621;SDS011;10470;42.670;23.354;2022-11-20T07:00:59;2.33;;;1.40;;
20621;SDS011;10470;42.670;23.354;2022-11-20T07:03:26;4.03;;;1.10;;
20621;SDS011;10470;42.670;23.354;2022-11-20T07:05:53;2.80;;;1.30;;
20621;SDS011;10470;42.670;23.354;2022-11-20T07:08:20;1.83;;;1.43;;
20621;SDS011;10470;42.670;23.354;2022-11-20T07:10:45;4.53;;;1.40;;
20621;SDS011;10470;42.670;23.354;2022-11-20T07:13:11;2.23;;;1.30;;
20621;SDS011;10470;42.670;23.354;2022-11-20T07:15:36;3.27;;;1.30;;
20621;SDS011;10470;42.670;23.354;2022-11-20T07:18:02;3.77;;;1.27;;
20621;SDS011;10470;42.670;23.354;2022-11-20T07:20:27;6.97;;;3.03;;
20621;SDS011;10470;42.670;23.354;2022-11-20T07:22:56;3.73;;;1.30;;
20621;SDS011;10470;42.670;23.354;2022-11-20T07:25:23;8.77;;;2.60;;
20621;SDS011;10470;42.670;23.354;2022-11-20T07:27:49;18.20;;;4.57;;
20621;SDS011;10470;42.670;23.354;2022-11-20T07:30:15;6.00;;;2.90;;
20621;SDS011;10470;42.670;23.354;2022-11-20T07:32:41;4.83;;;2.20;;
20621;SDS011;10470;42.670;23.354;2022-11-20T07:35:07;6.50;;;3.07;;
20621;SDS011;10470;42.670;23.354;2022-11-20T07:37:35;7.03;;;4.50;;
20621;SDS011;10470;42.670;23.354;2022-11-20T07:40:01;3.37;;;1.10;;
20621;SDS011;10470;42.670;23.354;2022-11-20T07:42:27;4.07;;;1.33;;
20621;SDS011;10470;42.670;23.354;2022-11-20T07:44:52;2.47;;;1.20;;
20621;SDS011;10470;42.670;23.354;2022-11-20T07:47:18;2.10;;;1.20;;
20621;SDS011;10470;42.670;23.354;2022-11-20T07:49:43;4.13;;;1.87;;
20621;SDS011;10470;42.670;23.354;2022-11-20T07:52:08;5.57;;;3.73;;
20621;SDS011;10470;42.670;23.354;2022-11-20T07:54:34;5.17;;;2.60;;
20621;SDS011;10470;42.670;23.354;2022-11-20T07:56:59;6.33;;;3.40;;
20621;SDS011;10470;42.670;23.354;2022-11-20T07:59:25;6.77;;;3.07;;
20621;SDS011;10470;42.670;23.354;2022-11-20T08:01:50;4.53;;;1.43;;
20621;SDS011;10470;42.670;23.354;2022-11-20T08:04:16;4.53;;;1.33;;
20621;SDS011;10470;42.670;23.354;2022-11-20T08:06:41;4.17;;;1.67;;
20621;SDS011;10470;42.670;23.354;2022-11-20T08:09:07;7.73;;;1.80;;
20621;SDS011;10470;42.670;23.354;2022-11-20T08:11:32;4.50;;;1.40;;
20621;SDS011;10470;42.670;23.354;2022-11-20T08:14:16;4.20;;;1.20;;
20621;SDS011;10470;42.670;23.354;2022-11-20T08:16:43;5.97;;;1.70;;
20621;SDS011;10470;42.670;23.354;2022-11-20T08:19:10;2.67;;;1.23;;
20621;SDS011;10470;42.670;23.354;2022-11-20T08:21:37;4.93;;;1.17;;
20621;SDS011;10470;42.670;23.354;2022-11-20T08:24:02;3.70;;;1.50;;
20621;SDS011;10470;42.670;23.354;2022-11-20T08:26:28;3.40;;;1.23;;
20621;SDS011;10470;42.670;23.354;2022-11-20T08:28:57;5.30;;;1.13;;
20621;SDS011;10470;42.670;23.354;2022-11-20T08:31:23;2.43;;;1.10;;
20621;SDS011;10470;42.670;23.354;2022-11-20T08:33:50;2.70;;;1.20;;
20621;SDS011;10470;42.670;23.354;2022-11-20T08:36:16;6.13;;;1.60;;
20621;SDS011;10470;42.670;23.354;2022-11-20T08:38:41;4.40;;;1.60;;
20621;SDS011;10470;42.670;23.354;2022-11-20T08:41:07;1.90;;;1.40;;
20621;SDS011;10470;42.670;23.354;2022-11-20T08:43:52;25.57;;;14.80;;
20621;SDS011;10470;42.670;23.354;2022-11-20T08:46:26;6.37;;;2.17;;
20621;SDS011;10470;42.670;23.354;2022-11-20T08:48:58;10.13;;;2.23;;
20621;SDS011;10470;42.670;23.354;2022-11-20T08:51:23;5.93;;;1.53;;
20621;SDS011;10470;42.670;23.354;2022-11-20T08:53:49;6.80;;;1.50;;
20621;SDS011;10470;42.670;23.354;2022-11-20T08:56:14;7.47;;;1.90;;
20621;SDS011;10470;42.670;23.354;2022-11-20T08:58:40;6.93;;;2.00;;
20621;SDS011;10470;42.670;23.354;2022-11-20T09:01:06;6.93;;;2.67;;
20621;SDS011;10470;42.670;23.354;2022-11-20T09:03:32;5.50;;;2.50;;
20621;SDS011;10470;42.670;23.354;2022-11-20T09:06:02;9.87;;;4.17;;
20621;SDS011;10470;42.670;23.354;2022-11-20T09:08:29;10.73;;;4.10;;
20621;SDS011;10470;42.670;23.354;2022-11-20T09:10:56;5.80;;;3.27;;
20621;SDS011;10470;42.670;23.354;2022-11-20T09:13:23;2.60;;;1.90;;
20621;SDS011;10470;42.670;23.354;2022-11-20T09:15:57;7.03;;;2.60;;
20621;SDS011;10470;42.670;23.354;2022-11-20T09:18:24;4.97;;;2.27;;
20621;SDS011;10470;42.670;23.354;2022-11-20T09:20:51;6.77;;;2.50;;
20621;SDS011;10470;42.670;23.354;2022-11-20T09:23:16;5.27;;;3.87;;
20621;SDS011;10470;42.670;23.354;2022-11-20T09:25:42;4.60;;;2.10;;
20621;SDS011;10470;42.670;23.354;2022-11-20T09:28:08;3.83;;;1.50;;
20621;SDS011;10470;42.670;23.354;2022-11-20T09:30:33;5.17;;;2.90;;
20621;SDS011;10470;42.670;23.354;2022-11-20T09:32:58;1.70;;;0.70;;
20621;SDS011;10470;42.670;23.354;2022-11-20T09:35:24;1.40;;;0.73;;
20621;SDS011;10470;42.670;23.354;2022-11-20T09:37:49;2.63;;;0.70;;
20621;SDS011;10470;42.670;23.354;2022-11-20T09:40:22;1.40;;;0.80;;
20621;SDS011;10470;42.670;23.354;2022-11-20T09:46:06;2.00;;;0.90;;
20621;SDS011;10470;42.670;23.354;2022-11-20T09:48:36;4.23;;;2.90;;
20621;SDS011;10470;42.670;23.354;2022-11-20T09:51:13;6.23;;;3.97;;
20621;SDS011;10470;42.670;23.354;2022-11-20T09:56:37;7.57;;;4.93;;
20621;SDS011;10470;42.670;23.354;2022-11-20T09:59:06;5.27;;;3.10;;
20621;SDS011;10470;42.670;23.354;2022-11-20T10:01:39;5.67;;;2.70;;
20621;SDS011;10470;42.670;23.354;2022-11-20T10:04:23;5.23;;;2.57;;
20621;SDS011;10470;42.670;23.354;2022-11-20T10:06:59;7.50;;;3.77;;
20621;SDS011;10470;42.670;23.354;2022-11-20T10:09:35;4.43;;;3.00;;
20621;SDS011;10470;42.670;23.354;2022-11-20T10:25:28;9.93;;;3.97;;
20621;SDS011;10470;42.670;23.354;2022-11-20T10:28:15;5.83;;;3.40;;
20621;SDS011;10470;42.670;23.354;2022-11-20T10:30:53;10.97;;;6.07;;
20621;SDS011;10470;42.670;23.354;2022-11-20T10:33:25;7.57;;;3.60;;
20621;SDS011;10470;42.670;23.354;2022-11-20T10:38:31;5.77;;;2.70;;
20621;SDS011;10470;42.670;23.354;2022-11-20T10:41:02;5.93;;;2.93;;
20621;SDS011;10470;42.670;23.354;2022-11-20T10:43:49;5.33;;;2.77;;
20621;SDS011;10470;42.670;23.354;2022-11-20T10:46:20;10.33;;;3.50;;
20621;SDS011;10470;42.670;23.354;2022-11-20T10:48:47;7.67;;;4.87;;
20621;SDS011;10470;42.670;23.354;2022-11-20T10:56:24;8.77;;;3.27;;
20621;SDS011;10470;42.670;23.354;2022-11-20T10:59:04;7.03;;;3.13;;
20621;SDS011;10470;42.670;23.354;2022-11-20T11:01:50;6.57;;;3.37;;
20621;SDS011;10470;42.670;23.354;2022-11-20T11:04:28;7.03;;;3.50;;
20621;SDS011;10470;42.670;23.354;2022-11-20T11:07:19;10.87;;;3.50;;
20621;SDS011;10470;42.670;23.354;2022-11-20T11:10:05;9.47;;;4.60;;
20621;SDS011;10470;42.670;23.354;2022-11-20T11:12:46;8.40;;;4.10;;
20621;SDS011;10470;42.670;23.354;2022-11-20T11:17:56;8.90;;;2.83;;
20621;SDS011;10470;42.670;23.354;2022-11-20T11:20:22;3.53;;;1.53;;
20621;SDS011;10470;42.670;23.354;2022-11-20T11:22:50;1.67;;;0.70;;
20621;SDS011;10470;42.670;23.354;2022-11-20T11:25:29;3.40;;;1.30;;
20621;SDS011;10470;42.670;23.354;2022-11-20T11:28:00;2.00;;;0.90;;
20621;SDS011;10470;42.670;23.354;2022-11-20T11:30:40;2.07;;;1.10;;
20621;SDS011;10470;42.670;23.354;2022-11-20T11:33:10;1.53;;;0.80;;
20621;SDS011;10470;42.670;23.354;2022-11-20T11:35:55;1.87;;;0.93;;
20621;SDS011;10470;42.670;23.354;2022-11-20T11:38:41;3.60;;;1.10;;
20621;SDS011;10470;42.670;23.354;2022-11-20T11:41:09;1.93;;;0.80;;
20621;SDS011;10470;42.670;23.354;2022-11-20T11:43:48;1.07;;;0.83;;
20621;SDS011;10470;42.670;23.354;2022-11-20T11:46:36;1.30;;;0.93;;
20621;SDS011;10470;42.670;23.354;2022-11-20T11:54:24;2.97;;;0.93;;
20621;SDS011;10470;42.670;23.354;2022-11-20T11:56:55;2.20;;;0.80;;
20621;SDS011;10470;42.670;23.354;2022-11-20T11:59:35;0.90;;;0.73;;
20621;SDS011;10470;42.670;23.354;2022-11-20T12:02:36;2.47;;;0.83;;
20621;SDS011;10470;42.670;23.354;2022-11-20T12:07:42;4.10;;;0.90;;
20621;SDS011;10470;42.670;23.354;2022-11-20T12:10:18;4.40;;;1.10;;
20621;SDS011;10470;42.670;23.354;2022-11-20T12:12:46;1.20;;;0.70;;
20621;SDS011;10470;42.670;23.354;2022-11-20T12:15:22;5.13;;;1.33;;
20621;SDS011;10470;42.670;23.354;2022-11-20T12:17:51;2.30;;;0.80;;
20621;SDS011;10470;42.670;23.354;2022-11-20T12:20:16;1.97;;;0.60;;
20621;SDS011;10470;42.670;23.354;2022-11-20T12:25:43;2.03;;;0.57;;
20621;SDS011;10470;42.670;23.354;2022-11-20T12:33:30;1.70;;;0.60;;
20621;SDS011;10470;42.670;23.354;2022-11-20T12:39:39;1.30;;;0.90;;
20621;SDS011;10470;42.670;23.354;2022-11-20T12:42:19;2.40;;;1.20;;
20621;SDS011;10470;42.670;23.354;2022-11-20T12:50:28;3.53;;;0.90;;
20621;SDS011;10470;42.670;23.354;2022-11-20T12:53:23;10.67;;;4.90;;
20621;SDS011;10470;42.670;23.354;2022-11-20T13:06:45;5.70;;;3.20;;
20621;SDS011;10470;42.670;23.354;2022-11-20T13:09:12;4.50;;;2.60;;
20621;SDS011;10470;42.670;23.354;2022-11-20T13:16:53;4.60;;;2.30;;
20621;SDS011;10470;42.670;23.354;2022-11-20T13:19:25;4.07;;;1.93;;
20621;SDS011;10470;42.670;23.354;2022-11-20T13:21:52;4.03;;;1.70;;
20621;SDS011;10470;42.670;23.354;2022-11-20T13:29:40;4.07;;;2.00;;
20621;SDS011;10470;42.670;23.354;2022-11-20T13:34:59;5.20;;;1.77;;
20621;SDS011;10470;42.670;23.354;2022-11-20T13:37:28;5.97;;;2.17;;
20621;SDS011;10470;42.670;23.354;2022-11-20T13:42:45;4.20;;;2.63;;
20621;SDS011;10470;42.670;23.354;2022-11-20T13:45:27;3.37;;;2.07;;
20621;SDS011;10470;42.670;23.354;2022-11-20T13:47:57;11.47;;;3.73;;
20621;SDS011;10470;42.670;23.354;2022-11-20T13:50:50;5.97;;;2.80;;
20621;SDS011;10470;42.670;23.354;2022-11-20T13:53:33;4.00;;;2.17;;
20621;SDS011;10470;42.670;23.354;2022-11-20T13:56:15;6.93;;;2.30;;
20621;SDS011;10470;42.670;23.354;2022-11-20T14:01:25;6.57;;;2.80;;
20621;SDS011;10470;42.670;23.354;2022-11-20T14:03:55;7.23;;;3.23;;
20621;SDS011;10470;42.670;23.354;2022-11-20T14:08:52;6.43;;;2.77;;
20621;SDS011;10470;42.670;23.354;2022-11-20T14:11:19;4.13;;;2.40;;
20621;SDS011;10470;42.670;23.354;2022-11-20T14:13:52;6.57;;;2.97;;
20621;SDS011;10470;42.670;23.354;2022-11-20T14:16:21;6.63;;;3.70;;
20621;SDS011;10470;42.670;23.354;2022-11-20T14:18:47;7.20;;;4.50;;
20621;SDS011;10470;42.670;23.354;2022-11-20T14:21:21;6.10;;;3.97;;
20621;SDS011;10470;42.670;23.354;2022-11-20T14:24:18;8.97;;;3.47;;
20621;SDS011;10470;42.670;23.354;2022-11-20T14:26:44;8.10;;;3.83;;
20621;SDS011;10470;42.670;23.354;2022-11-20T14:29:14;5.93;;;3.57;;
20621;SDS011;10470;42.670;23.354;2022-11-20T14:31:42;7.77;;;4.40;;
20621;SDS011;10470;42.670;23.354;2022-11-20T14:34:14;9.60;;;4.30;;
20621;SDS011;10470;42.670;23.354;2022-11-20T14:36:42;9.73;;;4.40;;
20621;SDS011;10470;42.670;23.354;2022-11-20T14:39:10;9.83;;;4.50;;
20621;SDS011;10470;42.670;23.354;2022-11-20T14:41:37;11.57;;;6.30;;
20621;SDS011;10470;42.670;23.354;2022-11-20T14:44:03;13.73;;;9.30;;
20621;SDS011;10470;42.670;23.354;2022-11-20T14:46:29;12.53;;;7.00;;
20621;SDS011;10470;42.670;23.354;2022-11-20T14:48:57;9.50;;;5.17;;
20621;SDS011;10470;42.670;23.354;2022-11-20T14:51:31;10.17;;;5.30;;
20621;SDS011;10470;42.670;23.354;2022-11-20T14:54:07;7.67;;;5.00;;
20621;SDS011;10470;42.670;23.354;2022-11-20T14:56:34;9.17;;;5.43;;
20621;SDS011;10470;42.670;23.354;2022-11-20T14:59:00;12.03;;;5.90;;
20621;SDS011;10470;42.670;23.354;2022-11-20T15:01:29;9.93;;;5.27;;
20621;SDS011;10470;42.670;23.354;2022-11-20T15:03:59;4.53;;;3.67;;
20621;SDS011;10470;42.670;23.354;2022-11-20T15:06:33;7.73;;;3.70;;
20621;SDS011;10470;42.670;23.354;2022-11-20T15:08:58;5.60;;;3.20;;
20621;SDS011;10470;42.670;23.354;2022-11-20T15:11:27;6.43;;;2.40;;
20621;SDS011;10470;42.670;23.354;2022-11-20T15:13:55;4.47;;;2.20;;
20621;SDS011;10470;42.670;23.354;2022-11-20T15:16:21;6.10;;;3.10;;
20621;SDS011;10470;42.670;23.354;2022-11-20T15:18:48;4.13;;;2.67;;
20621;SDS011;10470;42.670;23.354;2022-11-20T15:21:15;2.80;;;2.07;;
20621;SDS011;10470;42.670;23.354;2022-11-20T15:23:43;4.97;;;2.20;;
20621;SDS011;10470;42.670;23.354;2022-11-20T15:26:10;2.73;;;1.90;;
20621;SDS011;10470;42.670;23.354;2022-11-20T15:28:39;21.80;;;5.47;;
20621;SDS011;10470;42.670;23.354;2022-11-20T15:31:06;5.17;;;2.03;;
20621;SDS011;10470;42.670;23.354;2022-11-20T15:33:36;4.53;;;2.13;;
20621;SDS011;10470;42.670;23.354;2022-11-20T15:36:01;3.67;;;3.03;;
20621;SDS011;10470;42.670;23.354;2022-11-20T15:38:27;3.03;;;2.30;;
20621;SDS011;10470;42.670;23.354;2022-11-20T15:40:52;5.03;;;2.27;;
20621;SDS011;10470;42.670;23.354;2022-11-20T15:43:18;2.70;;;2.10;;
20621;SDS011;10470;42.670;23.354;2022-11-20T15:45:44;3.70;;;2.50;;
20621;SDS011;10470;42.670;23.354;2022-11-20T15:48:16;4.13;;;2.20;;
20621;SDS011;10470;42.670;23.354;2022-11-20T15:50:57;4.20;;;2.50;;
20621;SDS011;10470;42.670;23.354;2022-11-20T15:53:32;6.73;;;2.70;;
20621;SDS011;10470;42.670;23.354;2022-11-20T15:55:57;3.07;;;2.43;;
20621;SDS011;10470;42.670;23.354;2022-11-20T15:58:23;5.27;;;3.20;;
20621;SDS011;10470;42.670;23.354;2022-11-20T16:00:49;4.03;;;3.10;;
20621;SDS011;10470;42.670;23.354;2022-11-20T16:03:16;3.40;;;2.33;;
20621;SDS011;10470;42.670;23.354;2022-11-20T16:05:42;4.03;;;2.23;;
20621;SDS011;10470;42.670;23.354;2022-11-20T16:08:08;3.20;;;1.80;;
20621;SDS011;10470;42.670;23.354;2022-11-20T16:10:34;3.07;;;1.70;;
20621;SDS011;10470;42.670;23.354;2022-11-20T16:13:00;3.77;;;2.50;;
20621;SDS011;10470;42.670;23.354;2022-11-20T16:15:51;4.33;;;1.87;;